Des Lacs, ND (58733)

9:58 PM CST on February 09, 2016 (GMT -0600)
Edgeview Estates | | Change Station
CLOSE
Current Station
Personal Weather Station
Location: Minot, ND
Elevation: 1752 ft
Nearby Weather Stations

Elev 1752 ft 48.21 °N, 101.33 °W | Updated 7 seconds ago

Overcast
Overcast
20.0 °F
Feels Like 14 °F
N
4.0
Wind Variable Wind from SE
Gusts 12.0 mph

Today
High -- | Low -- °F
--% Chance of Precip.
Yesterday
High -- | Low -- °F
Precip. -- in
Pressure 30.13 in
Visibility 1.8 miles
Clouds Overcast 2300 ft
Windchill 14 °F
Dew Point 15 °F
Humidity 81%
Rainfall 0.00 in
Snow Depth Not available.
8:03 AM 5:58 PM
Waxing Crescent, 3% visible
METAR KMOT 100354Z 10012KT 1 3/4SM -SN OVC023 M06/M09 A3004 RMK AO2 SLP201 P0000 T10561094
Pressure 30.13 in
Visibility 1.8 miles
Clouds Overcast 2300 ft
Windchill 14 °F
Dew Point 15 °F
Humidity 81%
Rainfall 0.00 in
Snow Depth Not available.
8:03 AM 5:58 PM
Waxing Crescent, 3% visible
METAR KMOT 100354Z 10012KT 1 3/4SM -SN OVC023 M06/M09 A3004 RMK AO2 SLP201 P0000 T10561094

10-Day Weather Forecast

Almanac

Astronomy

Feb. 09, 2016 Rise Set
Actual Time
Civil Twilight
Nautical Twilight
Astronomical Twilight
Moon
Length of Visible Light
Length of Day
Tomorrow will be .
, % of the Moon is Illuminated

Today's Extremes

State Highs State Lows

Community

WunderPhotos

Upload Photos

1,891,792 photos uploaded!

WunderBlog® & News

Nearby

Air Quality

  Air Quality AQ Index Pollutant
Not available.

Snow Depth

Station Depth Elevation

Earthquake Activity

City Distance Mag. Time & Date
Minimum magnitude displayed is 2.5.

Coastal Water Temperatures

Place Temperature

Stations

Nearby Weather Stations

Station Location Temp. Windchill Dew Point Humidity Wind Precip. Elev Updated Type
                   

Watches & Warnings

There are currently no watches in effect.